createdAt,value
2019-02-08T00:01:28.511Z,34.33
2019-02-08T00:03:59.156Z,36.03
2019-02-08T00:06:30.015Z,31.33
2019-02-08T00:09:00.610Z,33.97
2019-02-08T00:11:31.207Z,37.53
2019-02-08T00:14:01.768Z,35.97
2019-02-08T00:16:32.505Z,31.57
2019-02-08T00:19:03.107Z,29.80
2019-02-08T00:21:34.277Z,31.60
2019-02-08T00:24:05.079Z,31.00
2019-02-08T00:26:35.892Z,29.53
2019-02-08T00:29:07.086Z,34.10
2019-02-08T00:31:37.811Z,31.70
2019-02-08T00:34:08.417Z,33.97
2019-02-08T00:36:39.018Z,38.23
2019-02-08T00:39:11.348Z,29.67
2019-02-08T00:41:42.016Z,26.73
2019-02-08T00:44:12.574Z,31.13
2019-02-08T00:46:43.134Z,38.47
2019-02-08T00:49:13.701Z,30.73
2019-02-08T00:51:44.262Z,30.77
2019-02-08T00:54:14.840Z,30.57
2019-02-08T00:56:45.429Z,34.07
2019-02-08T00:59:15.969Z,25.90
2019-02-08T01:01:46.450Z,26.93
2019-02-08T01:04:17.091Z,26.93
2019-02-08T01:06:47.636Z,29.10
2019-02-08T01:09:18.212Z,30.00
2019-02-08T01:11:49.737Z,28.73
2019-02-08T01:14:20.343Z,25.33
2019-02-08T01:16:50.979Z,31.47
2019-02-08T01:19:21.527Z,28.37
2019-02-08T01:21:52.847Z,28.43
2019-02-08T01:24:24.260Z,28.50
2019-02-08T01:26:54.705Z,28.50
2019-02-08T01:29:25.309Z,29.53
2019-02-08T01:31:55.798Z,24.87
2019-02-08T01:34:26.421Z,32.30
2019-02-08T01:36:56.914Z,28.13
2019-02-08T01:39:27.396Z,26.83
2019-02-08T01:41:57.962Z,24.53
2019-02-08T01:44:28.468Z,23.80
2019-02-08T01:46:59.094Z,29.13
2019-02-08T01:49:29.680Z,26.70
2019-02-08T01:52:01.362Z,29.37
2019-02-08T01:54:31.852Z,27.27
2019-02-08T01:57:02.345Z,21.57
2019-02-08T01:59:32.957Z,23.23
2019-02-08T02:02:03.557Z,22.10
2019-02-08T02:04:34.159Z,22.33
2019-02-08T02:07:04.883Z,25.37
2019-02-08T02:09:36.184Z,27.90
2019-02-08T02:12:07.577Z,28.33
2019-02-08T02:14:38.046Z,26.30
2019-02-08T02:17:08.678Z,27.07
2019-02-08T02:19:39.145Z,26.80
2019-02-08T02:22:09.818Z,24.50
2019-02-08T02:24:40.373Z,29.73
2019-02-08T02:27:10.802Z,22.80
2019-02-08T02:29:41.265Z,24.87
2019-02-08T02:32:12.030Z,25.10
2019-02-08T02:34:43.555Z,21.27
2019-02-08T02:37:14.160Z,27.67
2019-02-08T02:39:44.709Z,25.63
2019-02-08T02:42:15.357Z,29.50
2019-02-08T02:44:45.791Z,24.43
2019-02-08T02:47:16.358Z,23.07
2019-02-08T02:49:46.941Z,30.07
2019-02-08T02:52:17.707Z,23.07
2019-02-08T02:54:48.229Z,28.97
2019-02-08T02:57:19.745Z,28.67
2019-02-08T02:59:50.387Z,30.83
2019-02-08T03:02:21.056Z,28.57
2019-02-08T03:04:51.704Z,23.03
2019-02-08T03:07:22.214Z,25.23
2019-02-08T03:09:52.784Z,24.53
2019-02-08T03:12:23.466Z,29.43
2019-02-08T03:14:54.034Z,29.73
2019-02-08T03:17:24.673Z,28.07
2019-02-08T03:19:55.127Z,25.27
2019-02-08T03:22:25.661Z,30.53
2019-02-08T03:24:56.262Z,30.10
2019-02-08T03:27:26.934Z,29.63
2019-02-08T03:29:57.435Z,32.07
2019-02-08T03:32:27.962Z,31.47
2019-02-08T03:34:58.533Z,28.80
2019-02-08T03:37:29.027Z,28.53
2019-02-08T03:39:59.658Z,29.57
2019-02-08T03:42:30.224Z,36.53
2019-02-08T03:45:00.795Z,34.37
2019-02-08T03:47:31.321Z,30.33
2019-02-08T03:50:01.783Z,32.43
2019-02-08T03:52:33.239Z,34.47
2019-02-08T03:55:04.931Z,25.23
2019-02-08T03:57:35.658Z,27.40
2019-02-08T04:00:15.884Z,27.83
2019-02-08T04:02:46.509Z,30.27
2019-02-08T04:05:17.123Z,27.93
2019-02-08T04:07:47.731Z,33.13
2019-02-08T04:10:20.668Z,31.27
2019-02-08T04:12:51.326Z,26.90
2019-02-08T04:15:24.357Z,27.67
2019-02-08T04:17:54.919Z,29.50
2019-02-08T04:20:26.703Z,30.33
2019-02-08T04:22:57.933Z,29.37
2019-02-08T04:25:28.543Z,26.13
2019-02-08T04:27:59.152Z,31.67
2019-02-08T04:30:32.695Z,33.73
2019-02-08T04:33:05.354Z,27.87
2019-02-08T04:35:35.963Z,34.17
2019-02-08T04:38:06.637Z,31.23
2019-02-08T04:40:37.067Z,30.87
2019-02-08T04:43:09.115Z,26.03
2019-02-08T04:45:39.655Z,31.83
2019-02-08T04:48:10.253Z,31.60
2019-02-08T04:50:40.716Z,29.37
2019-02-08T04:53:12.107Z,35.47
2019-02-08T04:55:42.658Z,36.83
2019-02-08T04:58:13.186Z,27.90
2019-02-08T05:00:43.788Z,36.73
2019-02-08T05:03:14.344Z,36.57
2019-02-08T05:05:44.952Z,37.93
2019-02-08T05:08:15.525Z,31.67
2019-02-08T05:10:46.069Z,31.50
2019-02-08T05:13:16.581Z,34.77
2019-02-08T05:15:47.118Z,32.00
2019-02-08T05:18:17.688Z,30.77
2019-02-08T05:20:48.195Z,37.70
2019-02-08T05:23:18.755Z,29.40
2019-02-08T05:25:49.272Z,40.07
2019-02-08T05:28:19.741Z,41.80
2019-02-08T05:30:50.201Z,31.43
2019-02-08T05:33:22.334Z,22.20
2019-02-08T05:35:52.896Z,25.87
2019-02-08T05:38:23.330Z,19.87
2019-02-08T05:40:53.928Z,23.73
2019-02-08T05:43:24.500Z,22.37
2019-02-08T05:45:58.374Z,25.07
2019-02-08T05:48:28.790Z,23.87
2019-02-08T05:50:59.193Z,21.60
2019-02-08T05:53:30.602Z,27.93
2019-02-08T05:56:01.134Z,26.20
2019-02-08T05:58:32.047Z,29.47
2019-02-08T06:01:02.679Z,36.37
2019-02-08T06:03:33.348Z,37.37
2019-02-08T06:06:03.952Z,27.13
2019-02-08T06:08:34.440Z,34.93
2019-02-08T06:11:06.393Z,36.00
2019-02-08T06:13:37.024Z,31.93
2019-02-08T06:16:07.664Z,34.77
2019-02-08T06:18:38.230Z,31.80
2019-02-08T06:21:08.816Z,37.17
2019-02-08T06:23:39.491Z,32.93
2019-02-08T06:26:10.101Z,31.73
2019-02-08T06:28:40.598Z,33.97
2019-02-08T06:31:11.134Z,43.03
2019-02-08T06:33:42.523Z,37.23
2019-02-08T06:36:12.927Z,38.83
2019-02-08T06:38:44.707Z,31.37
2019-02-08T06:41:15.184Z,33.30
2019-02-08T06:43:45.975Z,27.80
2019-02-08T06:46:16.428Z,34.07
2019-02-08T06:48:47.089Z,36.07
2019-02-08T06:51:17.657Z,31.50
2019-02-08T06:53:49.347Z,34.97
2019-02-08T06:56:37.137Z,32.47
2019-02-08T06:59:09.407Z,37.00
2019-02-08T07:01:41.526Z,36.10
2019-02-08T07:04:13.835Z,38.53
2019-02-08T07:06:46.105Z,33.63
2019-02-08T07:09:36.447Z,33.23
2019-02-08T07:12:08.689Z,31.07
2019-02-08T07:14:46.713Z,31.93
2019-02-08T07:17:19.058Z,39.90
2019-02-08T07:20:06.120Z,40.37
2019-02-08T07:22:38.223Z,37.40
2019-02-08T07:25:23.960Z,35.70
2019-02-08T07:27:59.071Z,33.07
2019-02-08T07:30:51.343Z,37.20
2019-02-08T07:33:23.617Z,31.77
2019-02-08T07:35:57.492Z,41.20
2019-02-08T07:38:29.759Z,38.73
2019-02-08T07:41:20.509Z,35.17
2019-02-08T07:43:59.240Z,39.83
2019-02-08T07:46:32.442Z,42.27
2019-02-08T07:49:11.424Z,38.20
2019-02-08T07:51:43.669Z,36.17
2019-02-08T07:54:16.720Z,33.00
2019-02-08T07:56:49.511Z,36.03
2019-02-08T07:59:38.136Z,41.30
2019-02-08T08:02:25.203Z,38.43
2019-02-08T08:05:03.914Z,38.37
2019-02-08T08:07:54.362Z,42.63
2019-02-08T08:10:27.329Z,40.07
2019-02-08T08:13:05.729Z,41.27
2019-02-08T08:15:38.004Z,39.33
2019-02-08T08:18:16.676Z,39.63
2019-02-08T08:20:49.229Z,35.93
2019-02-08T08:23:24.110Z,41.10
2019-02-08T08:26:16.776Z,37.87
2019-02-08T08:29:03.745Z,38.83
2019-02-08T08:31:49.147Z,36.40
2019-02-08T08:34:50.879Z,32.20
2019-02-08T08:37:28.935Z,32.43
2019-02-08T08:40:27.487Z,35.30
2019-02-08T08:43:26.368Z,42.70
2019-02-08T08:46:18.935Z,33.10
2019-02-08T08:48:56.404Z,31.70
2019-02-08T08:51:53.158Z,33.60
2019-02-08T08:54:43.920Z,34.03
2019-02-08T08:57:36.908Z,32.57
2019-02-08T09:00:35.702Z,30.67
2019-02-08T09:03:16.480Z,29.90
2019-02-08T09:05:57.181Z,35.20
2019-02-08T09:09:04.888Z,26.00
2019-02-08T09:12:02.367Z,34.73
2019-02-08T09:14:55.544Z,33.07
2019-02-08T09:18:04.636Z,32.77
2019-02-08T09:20:51.120Z,34.67
2019-02-08T09:23:49.985Z,34.50
2019-02-08T09:26:47.106Z,30.07
2019-02-08T09:29:53.460Z,39.27
2019-02-08T09:32:43.218Z,35.47
2019-02-08T09:35:52.160Z,37.03
2019-02-08T09:39:04.597Z,31.77
2019-02-08T09:42:02.556Z,39.40
2019-02-08T09:44:43.073Z,32.20
2019-02-08T09:47:46.236Z,33.70
2019-02-08T09:50:39.937Z,33.00
2019-02-08T09:53:40.471Z,32.60
2019-02-08T09:56:43.015Z,37.93
2019-02-08T09:59:58.491Z,35.53
2019-02-08T10:03:06.074Z,32.00
2019-02-08T10:06:15.280Z,30.80
2019-02-08T10:08:56.088Z,34.10
2019-02-08T10:12:08.435Z,33.63
2019-02-08T10:15:00.831Z,40.90
2019-02-08T10:18:14.695Z,38.50
2019-02-08T10:21:15.092Z,39.50
2019-02-08T10:24:22.938Z,37.67
2019-02-08T10:27:41.576Z,31.73
2019-02-08T10:30:58.301Z,28.70
2019-02-08T10:34:11.844Z,30.77
2019-02-08T10:37:07.616Z,31.90
2019-02-08T10:39:54.268Z,28.53
2019-02-08T10:42:48.681Z,29.20
2019-02-08T10:45:26.358Z,31.60
2019-02-08T10:48:25.583Z,27.43
2019-02-08T10:51:51.640Z,31.67
2019-02-08T10:55:00.827Z,32.13
2019-02-08T10:58:06.128Z,30.77
2019-02-08T11:00:41.210Z,30.53
2019-02-08T11:04:01.225Z,28.33
2019-02-08T11:07:01.448Z,29.37
2019-02-08T11:09:54.063Z,28.03
2019-02-08T11:12:54.104Z,30.90
2019-02-08T11:16:00.357Z,23.87
2019-02-08T11:18:44.252Z,30.03
2019-02-08T11:21:14.959Z,31.77
2019-02-08T11:23:45.764Z,28.23
2019-02-08T11:26:22.498Z,28.33
2019-02-08T11:28:48.804Z,28.77
2019-02-08T11:31:19.424Z,28.20
2019-02-08T11:33:50.609Z,27.23
2019-02-08T11:36:21.208Z,28.47
2019-02-08T11:38:51.768Z,30.50
2019-02-08T11:41:22.407Z,26.63
2019-02-08T11:43:52.951Z,27.73
2019-02-08T11:46:23.481Z,27.70
2019-02-08T11:48:54.129Z,29.97
2019-02-08T11:51:24.711Z,35.37
2019-02-08T11:53:55.304Z,30.70
2019-02-08T11:56:30.050Z,28.30
2019-02-08T11:59:02.685Z,33.57
2019-02-08T12:01:34.926Z,34.90
2019-02-08T12:04:06.944Z,31.63
2019-02-08T12:06:37.503Z,30.50
2019-02-08T12:09:11.652Z,34.93
2019-02-08T12:11:42.270Z,35.67
2019-02-08T12:14:12.850Z,36.47
2019-02-08T12:16:43.490Z,36.60
2019-02-08T12:19:14.376Z,38.00
2019-02-08T12:21:44.973Z,36.30
2019-02-08T12:24:15.415Z,33.50
2019-02-08T12:26:45.949Z,35.13
2019-02-08T12:29:17.345Z,32.93
2019-02-08T12:31:48.748Z,30.10
2019-02-08T12:34:19.248Z,34.77
2019-02-08T12:36:49.888Z,34.53
2019-02-08T12:39:20.284Z,35.73
2019-02-08T12:41:50.697Z,36.67
2019-02-08T12:44:21.243Z,30.47
2019-02-08T12:46:51.702Z,35.47
2019-02-08T12:49:22.104Z,35.63
2019-02-08T12:51:52.717Z,31.67
2019-02-08T12:54:23.264Z,31.90
2019-02-08T12:56:53.819Z,30.07
2019-02-08T12:59:25.252Z,29.67
2019-02-08T13:01:56.083Z,33.70
2019-02-08T13:04:26.667Z,30.77
2019-02-08T13:06:57.136Z,34.63
2019-02-08T13:09:28.274Z,30.83
2019-02-08T13:11:58.846Z,30.73
2019-02-08T13:14:29.767Z,29.90
2019-02-08T13:17:01.338Z,31.30
2019-02-08T13:19:31.968Z,31.80
2019-02-08T13:22:04.852Z,26.67
2019-02-08T13:24:36.545Z,28.47
2019-02-08T13:27:07.238Z,32.73
2019-02-08T13:29:38.995Z,28.53
2019-02-08T13:32:09.934Z,32.53
2019-02-08T13:34:40.554Z,28.30
2019-02-08T13:37:11.592Z,28.10
2019-02-08T13:39:42.590Z,26.73
2019-02-08T13:42:13.997Z,28.63
2019-02-08T13:44:44.604Z,29.30
2019-02-08T13:47:15.172Z,29.37
2019-02-08T13:49:45.691Z,28.47
2019-02-08T13:52:16.314Z,31.10
2019-02-08T13:54:47.913Z,28.80
2019-02-08T13:57:18.357Z,29.97
2019-02-08T13:59:49.648Z,26.63
2019-02-08T14:02:20.055Z,25.67
2019-02-08T14:04:50.517Z,33.80
2019-02-08T14:07:21.369Z,28.27
2019-02-08T14:09:51.923Z,28.90
2019-02-08T14:12:22.371Z,29.93
2019-02-08T14:14:52.948Z,30.73
2019-02-08T14:17:23.590Z,29.57
2019-02-08T14:19:54.126Z,29.33
2019-02-08T14:22:24.904Z,26.87
2019-02-08T14:24:55.377Z,28.00
2019-02-08T14:27:26.022Z,26.37
2019-02-08T14:29:56.453Z,27.00
2019-02-08T14:32:27.009Z,31.50
2019-02-08T14:34:57.548Z,28.57
2019-02-08T14:37:29.065Z,28.53
2019-02-08T14:40:00.837Z,31.67
2019-02-08T14:42:31.569Z,29.20
2019-02-08T14:45:02.125Z,32.93
2019-02-08T14:47:33.284Z,31.70
2019-02-08T14:50:09.186Z,34.40
2019-02-08T14:52:39.902Z,28.07
2019-02-08T14:55:11.312Z,26.80
2019-02-08T14:57:41.959Z,27.97
2019-02-08T15:00:22.651Z,27.37
2019-02-08T15:02:53.240Z,33.93
2019-02-08T15:05:24.590Z,26.57
2019-02-08T15:07:55.114Z,27.67
2019-02-08T15:10:44.725Z,25.77
2019-02-08T15:13:15.328Z,28.63
2019-02-08T15:15:45.951Z,28.23
2019-02-08T15:18:16.531Z,30.07
2019-02-08T15:20:47.143Z,26.43
2019-02-08T15:23:17.715Z,30.70
2019-02-08T15:25:48.225Z,29.57
2019-02-08T15:28:18.689Z,28.67
2019-02-08T15:30:49.261Z,26.63
2019-02-08T15:33:19.823Z,26.57
2019-02-08T15:35:50.289Z,30.10
2019-02-08T15:38:24.159Z,30.27
2019-02-08T15:40:56.015Z,26.30
2019-02-08T15:43:26.437Z,31.70
2019-02-08T15:45:59.593Z,36.20
2019-02-08T15:48:30.271Z,38.73
2019-02-08T15:51:01.088Z,33.33
2019-02-08T15:53:31.612Z,27.90
2019-02-08T15:56:09.168Z,28.23
2019-02-08T15:58:39.912Z,30.67
2019-02-08T16:01:11.575Z,30.23
2019-02-08T16:03:42.633Z,28.80
2019-02-08T16:06:13.216Z,37.03
2019-02-08T16:08:43.813Z,35.90
2019-02-08T16:11:14.396Z,32.70
2019-02-08T16:13:44.938Z,39.47
2019-02-08T16:16:16.125Z,32.43
2019-02-08T16:18:46.723Z,35.67
2019-02-08T16:21:17.534Z,36.17
2019-02-08T16:23:48.143Z,30.97
2019-02-08T16:26:18.742Z,34.93
2019-02-08T16:28:49.312Z,35.63
2019-02-08T16:31:19.934Z,30.43
2019-02-08T16:33:50.566Z,33.20
2019-02-08T16:36:21.079Z,32.53
2019-02-08T16:38:51.645Z,43.80
2019-02-08T16:41:22.233Z,39.67
2019-02-08T16:43:53.267Z,35.90
2019-02-08T16:46:25.500Z,39.47
2019-02-08T16:48:56.038Z,39.40
2019-02-08T16:51:26.967Z,37.17
2019-02-08T16:53:57.480Z,38.97
2019-02-08T16:56:27.993Z,38.90
2019-02-08T16:58:58.613Z,46.17
2019-02-08T17:01:31.302Z,45.53
2019-02-08T17:04:01.793Z,39.97
2019-02-08T17:06:32.391Z,42.93
2019-02-08T17:09:02.915Z,38.20
2019-02-08T17:11:33.436Z,40.57
2019-02-08T17:14:04.021Z,38.13
2019-02-08T17:16:35.278Z,36.60
2019-02-08T17:19:06.017Z,44.23
2019-02-08T17:21:37.041Z,32.07
2019-02-08T17:24:07.818Z,35.97
2019-02-08T17:26:38.376Z,37.00
2019-02-08T17:29:08.963Z,40.03
2019-02-08T17:31:39.323Z,35.23
2019-02-08T17:34:09.957Z,39.50
2019-02-08T17:36:40.513Z,48.10
2019-02-08T17:39:11.315Z,53.47
2019-02-08T17:41:41.951Z,47.03
2019-02-08T17:44:12.683Z,45.50
2019-02-08T17:46:43.153Z,41.83
2019-02-08T17:49:13.708Z,42.40
2019-02-08T17:51:44.182Z,45.47
2019-02-08T17:54:14.895Z,53.57
2019-02-08T17:56:45.450Z,47.53
2019-02-08T17:59:16.116Z,47.93
2019-02-08T18:01:47.502Z,42.23
2019-02-08T18:04:18.076Z,50.00
2019-02-08T18:06:48.585Z,54.33
2019-02-08T18:09:19.069Z,55.50
2019-02-08T18:11:49.579Z,50.60
2019-02-08T18:14:20.189Z,47.50
2019-02-08T18:16:50.667Z,53.40
2019-02-08T18:19:21.216Z,50.00
2019-02-08T18:21:51.663Z,51.03
2019-02-08T18:24:22.365Z,49.50
2019-02-08T18:26:52.995Z,54.30
2019-02-08T18:29:23.566Z,47.50
2019-02-08T18:31:54.060Z,55.47
2019-02-08T18:34:24.570Z,50.67
2019-02-08T18:36:55.157Z,48.70
2019-02-08T18:39:25.805Z,45.20
2019-02-08T18:41:56.406Z,55.23
2019-02-08T18:44:28.081Z,48.77
2019-02-08T18:46:58.462Z,47.60
2019-02-08T18:49:28.973Z,45.50
2019-02-08T18:51:59.483Z,50.23
2019-02-08T18:54:30.195Z,50.77
2019-02-08T18:57:00.685Z,47.37
2019-02-08T18:59:31.301Z,47.77
2019-02-08T19:02:02.736Z,54.03
2019-02-08T19:04:33.351Z,51.13
2019-02-08T19:07:04.657Z,45.73
2019-02-08T19:09:35.652Z,58.40
2019-02-08T19:12:08.260Z,48.90
2019-02-08T19:14:38.806Z,44.40
2019-02-08T19:17:09.404Z,47.87
2019-02-08T19:19:40.010Z,57.70
2019-02-08T19:22:10.686Z,43.60
2019-02-08T19:24:41.259Z,44.23
2019-02-08T19:27:11.733Z,48.90
2019-02-08T19:29:42.412Z,47.63
2019-02-08T19:32:12.933Z,46.90
2019-02-08T19:34:43.479Z,53.83
2019-02-08T19:37:14.194Z,53.00
2019-02-08T19:39:44.767Z,53.03
2019-02-08T19:42:15.284Z,46.33
2019-02-08T19:44:45.773Z,52.63
2019-02-08T19:47:16.481Z,55.60
2019-02-08T19:49:47.583Z,43.97
2019-02-08T19:52:18.223Z,45.70
2019-02-08T19:54:48.813Z,56.60
2019-02-08T19:57:19.373Z,65.97
2019-02-08T19:59:50.314Z,58.70
2019-02-08T20:02:21.945Z,54.77
2019-02-08T20:04:52.442Z,50.27
2019-02-08T20:07:23.038Z,49.53
2019-02-08T20:09:54.239Z,58.73
2019-02-08T20:12:25.018Z,50.67
2019-02-08T20:14:55.548Z,59.60
2019-02-08T20:17:26.060Z,61.47
2019-02-08T20:19:56.714Z,67.57
2019-02-08T20:22:27.453Z,66.50
2019-02-08T20:24:58.374Z,62.97
2019-02-08T20:27:28.957Z,65.77
2019-02-08T20:29:59.626Z,68.77
2019-02-08T20:32:30.243Z,58.33
2019-02-08T20:35:00.738Z,56.17
2019-02-08T20:37:31.330Z,55.20
2019-02-08T20:40:02.025Z,62.77
2019-02-08T20:42:32.745Z,64.80
2019-02-08T20:45:03.449Z,66.87
2019-02-08T20:47:34.068Z,57.27
2019-02-08T20:50:08.369Z,53.73
2019-02-08T20:52:38.932Z,42.13
2019-02-08T20:55:11.510Z,47.00
2019-02-08T20:57:42.105Z,48.87
2019-02-08T21:00:39.143Z,46.70
2019-02-08T21:03:15.227Z,47.73
2019-02-08T21:05:47.305Z,47.73
2019-02-08T21:08:18.636Z,54.87
2019-02-08T21:10:49.266Z,55.80
2019-02-08T21:13:19.903Z,52.93
2019-02-08T21:15:50.951Z,53.03
2019-02-08T21:18:21.389Z,54.03
2019-02-08T21:20:52.008Z,61.17
2019-02-08T21:23:23.126Z,59.27
2019-02-08T21:25:53.699Z,56.17
2019-02-08T21:28:24.361Z,60.43
2019-02-08T21:30:54.991Z,55.90
2019-02-08T21:33:25.593Z,56.37
2019-02-08T21:35:56.264Z,49.40
2019-02-08T21:38:26.811Z,52.33
2019-02-08T21:40:57.211Z,57.20
2019-02-08T21:43:27.888Z,50.77
2019-02-08T21:45:58.451Z,48.40
2019-02-08T21:48:28.996Z,56.40
2019-02-08T21:51:00.754Z,57.97
2019-02-08T21:53:31.204Z,48.50
2019-02-08T21:56:01.821Z,55.73
2019-02-08T21:58:32.432Z,52.43
2019-02-08T22:01:03.384Z,47.97
2019-02-08T22:03:34.772Z,52.63
2019-02-08T22:06:06.096Z,44.40
2019-02-08T22:08:36.695Z,61.67
2019-02-08T22:11:07.368Z,46.67
2019-02-08T22:13:37.918Z,50.33
2019-02-08T22:16:08.607Z,48.07
2019-02-08T22:18:39.162Z,50.77
2019-02-08T22:21:09.772Z,48.53
2019-02-08T22:23:44.141Z,46.63
2019-02-08T22:26:14.802Z,43.77
2019-02-08T22:28:45.812Z,56.03
2019-02-08T22:31:16.598Z,49.83
2019-02-08T22:33:47.039Z,54.77
2019-02-08T22:36:17.652Z,54.07
2019-02-08T22:38:48.182Z,57.00
2019-02-08T22:41:20.646Z,57.30
2019-02-08T22:43:51.207Z,50.80
2019-02-08T22:46:22.666Z,51.30
2019-02-08T22:48:53.140Z,54.43
2019-02-08T22:51:23.704Z,53.83
2019-02-08T22:53:54.230Z,47.23
2019-02-08T22:56:24.754Z,54.03
2019-02-08T22:58:55.284Z,54.30
2019-02-08T23:01:28.780Z,54.23
2019-02-08T23:04:00.438Z,52.03
2019-02-08T23:06:31.829Z,53.47
2019-02-08T23:09:02.494Z,53.43
2019-02-08T23:11:33.127Z,48.67
2019-02-08T23:14:04.118Z,47.63
2019-02-08T23:16:34.732Z,49.17
2019-02-08T23:19:05.828Z,44.40
2019-02-08T23:21:36.463Z,50.90
2019-02-08T23:24:07.187Z,52.73
2019-02-08T23:26:37.790Z,51.93
2019-02-08T23:29:08.319Z,55.13
2019-02-08T23:31:38.982Z,47.03
2019-02-08T23:34:09.569Z,48.57
2019-02-08T23:36:40.227Z,49.10
2019-02-08T23:39:12.417Z,48.77
2019-02-08T23:41:43.065Z,47.63
2019-02-08T23:44:13.615Z,48.57
2019-02-08T23:46:44.234Z,53.07
2019-02-08T23:49:14.778Z,51.67
2019-02-08T23:51:45.186Z,51.50
2019-02-08T23:54:15.796Z,52.90
2019-02-08T23:56:46.353Z,52.77
2019-02-08T23:59:16.963Z,51.33
